Time;durP1;ratioP1;P1;durP2;ratioP2;P2;SDS_P1;SDS_P2;PMS_P1;PMS_P2;Temp;Humidity;BMP_temperature;BMP_pressure;BME280_temperature;BME280_humidity;BME280_pressure;Samples;Min_cycle;Max_cycle;Signal;HPM_P1;HPM_P2
2023/01/03 00:05:07;;;;;;;3.00;1.40;;;;;;;15.94;69.61;102046.56;20304274;29;20048;-91
2023/01/03 00:15:09;;;;;;;2.22;1.63;;;;;;;16.20;69.27;102089.72;20284327;29;20060;-90
2023/01/03 00:25:10;;;;;;;1.45;1.25;;;;;;;16.27;68.93;102115.25;20350920;29;20087;-92
2023/01/03 00:35:12;;;;;;;2.15;1.30;;;;;;;16.11;68.85;102098.34;20322873;29;20505;-90
2023/01/03 00:45:13;;;;;;;2.00;1.20;;;;;;;16.27;68.72;102142.09;20353101;29;20071;-92
2023/01/03 00:55:20;;;;;;;2.90;1.83;;;;;;;15.69;67.88;102039.97;20338479;29;20202;-92
2023/01/03 01:05:21;;;;;;;1.85;1.50;;;;;;;16.03;68.10;102107.75;20335185;29;20071;-91
2023/01/03 01:15:23;;;;;;;2.17;1.48;;;;;;;16.25;67.68;102160.16;20334116;29;20406;-92
2023/01/03 01:25:24;;;;;;;1.75;1.52;;;;;;;16.23;67.43;102165.63;20296376;29;20458;-91
2023/01/03 01:35:26;;;;;;;2.50;1.60;;;;;;;16.23;67.26;102164.75;20324769;29;20068;-91
2023/01/03 01:45:27;;;;;;;2.35;1.80;;;;;;;16.04;66.96;102154.28;20306996;29;20047;-92
2023/01/03 01:55:36;;;;;;;3.03;1.90;;;;;;;16.03;66.80;102161.47;20310279;29;20052;-91
2023/01/03 02:05:41;;;;;;;2.88;1.65;;;;;;;16.03;66.49;102163.28;20305938;29;20119;-92
2023/01/03 02:16:04;;;;;;;2.50;1.70;;;;;;;16.20;66.42;102199.88;20335321;29;20518;-92
2023/01/03 02:26:24;;;;;;;2.90;1.75;;;;;;;16.21;66.06;102189.06;20347344;29;20048;-91
2023/01/03 02:36:33;;;;;;;2.90;2.00;;;;;;;16.21;65.90;102193.53;20286824;29;20056;-94
2023/01/03 02:46:48;;;;;;;2.08;1.80;;;;;;;16.20;65.50;102200.75;20332979;29;20071;-92
2023/01/03 02:56:56;;;;;;;2.55;2.00;;;;;;;16.19;65.67;102200.84;20327428;29;20584;-91
2023/01/03 03:07:21;;;;;;;3.53;2.15;;;;;;;16.20;65.28;102195.38;20336420;29;20699;-92
2023/01/03 03:17:27;;;;;;;3.13;2.00;;;;;;;16.18;65.47;102196.41;20306838;29;20067;-84
2023/01/03 03:37:54;;;;;;;2.72;2.05;;;;;;;16.16;65.11;102193.84;20335665;29;20421;-92
2023/01/03 03:49:36;;;;;;;3.58;2.20;;;;;;;16.17;64.56;102211.69;20359359;29;20168;-92
2023/01/03 03:58:57;;;;;;;3.20;2.35;;;;;;;15.85;64.57;102168.78;20359367;29;20055;-91
2023/01/03 04:08:59;;;;;;;2.22;2.03;;;;;;;15.83;63.99;102169.81;20374169;29;20484;-91
2023/01/03 04:19:00;;;;;;;2.83;2.47;;;;;;;16.14;64.00;102224.44;20336579;29;20063;-92
2023/01/03 04:29:02;;;;;;;3.08;2.50;;;;;;;16.14;64.34;102216.38;20343100;29;20052;-92
2023/01/03 04:39:03;;;;;;;2.92;2.28;;;;;;;16.14;63.67;102229.81;20360050;29;20612;-94
2023/01/03 04:49:08;;;;;;;2.92;2.13;;;;;;;16.05;63.46;102229.41;20342717;29;20051;-93
2023/01/03 04:59:10;;;;;;;4.23;2.60;;;;;;;16.08;63.39;102234.59;20296869;29;20151;-92
2023/01/03 05:09:11;;;;;;;3.88;2.35;;;;;;;15.97;63.12;102215.56;20339376;29;20070;-91
2023/01/03 05:19:13;;;;;;;3.40;2.60;;;;;;;16.12;63.10;102254.06;20361777;29;20453;-92
2023/01/03 05:29:17;;;;;;;3.00;2.70;;;;;;;15.86;63.00;102207.22;20279707;29;20061;-92
2023/01/03 05:39:19;;;;;;;;;;;;;;;16.12;62.74;102253.22;20262962;29;20064;-92
2023/01/03 05:49:21;;;;;;;3.97;2.85;;;;;;;15.96;62.52;102243.41;20322462;29;19955;-93
2023/01/03 05:59:23;;;;;;;3.67;2.72;;;;;;;16.09;62.09;102257.81;20301350;29;20059;-92
2023/01/03 06:09:25;;;;;;;3.15;2.72;;;;;;;16.09;62.05;102251.56;20277978;29;20198;-92
2023/01/03 06:19:26;;;;;;;3.05;2.33;;;;;;;15.94;61.85;102221.13;20301614;29;20608;-92
2023/01/03 06:29:28;;;;;;;2.65;2.40;;;;;;;16.09;61.86;102263.19;20313880;29;20095;-91
2023/01/03 06:39:32;;;;;;;4.07;2.70;;;;;;;16.09;62.10;102256.94;20313858;29;20435;-84
2023/01/03 06:59:54;;;;;;;1.80;1.50;;;;;;;16.14;62.02;102264.72;20293295;29;20052;-88
2023/01/03 07:09:55;;;;;;;4.25;1.63;;;;;;;16.28;62.83;102280.03;20265619;29;20053;-90
2023/01/03 07:19:57;;;;;;;4.30;1.63;;;;;;;16.41;65.96;102296.31;20292351;29;20518;-88
2023/01/03 07:29:58;;;;;;;4.28;1.23;;;;;;;16.53;66.24;102304.47;20322352;29;20067;-93
2023/01/03 07:50:30;;;;;;;2.55;1.00;;;;;;;16.75;66.72;102326.50;20974274;23;20322;-84
2023/01/03 08:00:32;;;;;;;2.05;1.25;;;;;;;16.74;66.18;102327.44;20163013;29;20128;-89
2023/01/03 08:20:56;;;;;;;1.13;0.95;;;;;;;16.67;66.37;102332.34;20182154;29;20104;-91
2023/01/03 08:30:59;;;;;;;0.73;0.68;;;;;;;16.55;66.56;102303.50;20167790;29;20113;-89
2023/01/03 08:41:02;;;;;;;1.33;0.88;;;;;;;16.63;66.59;102323.59;20183147;29;20121;-90
2023/01/03 08:51:04;;;;;;;0.80;0.80;;;;;;;16.60;66.64;102310.34;20173578;29;20057;-90
2023/01/03 09:01:07;;;;;;;2.80;0.88;;;;;;;16.61;66.68;102320.13;20167541;29;20073;-90
2023/01/03 09:11:09;;;;;;;1.02;0.93;;;;;;;16.61;66.67;102308.53;20149559;29;20049;-90
2023/01/03 09:21:10;;;;;;;1.52;1.17;;;;;;;16.52;66.71;102307.25;20179369;29;20092;-92
2023/01/03 09:31:12;;;;;;;1.25;1.15;;;;;;;16.33;66.71;102286.84;20165345;29;20049;-91
2023/01/03 09:41:21;;;;;;;1.55;1.13;;;;;;;16.61;66.66;102321.97;20162153;29;20131;-86
2023/01/03 10:12:24;;;;;;;2.47;1.75;;;;;;;16.56;66.62;102303.44;20155246;29;20339;-87
2023/01/03 10:22:27;;;;;;;2.15;1.83;;;;;;;16.63;66.75;102296.72;20116142;29;20856;-89
2023/01/03 10:32:41;;;;;;;2.55;1.92;;;;;;;16.62;66.60;102289.59;20127179;29;20089;-89
2023/01/03 10:42:43;;;;;;;2.35;1.90;;;;;;;16.64;66.49;102281.47;20148216;29;20075;-88
2023/01/03 10:52:47;;;;;;;2.40;2.15;;;;;;;16.58;66.52;102244.19;20146621;29;20047;-88
2023/01/03 11:02:49;;;;;;;2.28;1.88;;;;;;;16.33;66.43;102189.25;20140302;29;20499;-87
2023/01/03 11:12:51;;;;;;;2.65;2.28;;;;;;;16.56;66.41;102227.28;20163060;29;20084;-88
2023/01/03 11:23:01;;;;;;;2.97;2.28;;;;;;;15.99;66.35;102111.59;20155479;29;20507;-88
2023/01/03 11:33:18;;;;;;;2.72;2.20;;;;;;;16.67;66.39;102214.88;20118826;29;20057;-89
2023/01/03 11:43:57;;;;;;;3.22;2.50;;;;;;;16.45;66.30;102182.25;20105317;29;20057;-89
2023/01/03 11:54:09;;;;;;;2.33;2.13;;;;;;;16.67;66.39;102214.88;20110754;29;20116;-88
2023/01/03 12:04:37;;;;;;;2.22;1.95;;;;;;;16.60;66.40;102196.56;20117967;29;20060;-88
2023/01/03 12:14:45;;;;;;;2.53;2.15;;;;;;;16.57;66.32;102176.09;20136405;29;20491;-89
2023/01/03 12:24:59;;;;;;;1.98;1.75;;;;;;;16.67;66.35;102190.69;20134223;29;20127;-88
2023/01/03 12:35:22;;;;;;;1.95;1.77;;;;;;;16.68;66.43;102189.72;20127491;29;20657;-90
2023/01/03 12:45:24;;;;;;;2.85;2.10;;;;;;;16.68;66.38;102183.50;20133313;29;20053;-89
2023/01/03 12:55:54;;;;;;;2.22;2.03;;;;;;;16.67;66.42;102169.19;20129043;29;20499;-88
2023/01/03 13:06:06;;;;;;;2.40;2.10;;;;;;;16.60;66.48;102154.41;20139329;29;20062;-87
2023/01/03 13:16:32;;;;;;;2.30;1.88;;;;;;;16.70;66.54;102164.56;20141808;29;20417;-88
2023/01/03 13:26:34;;;;;;;2.00;1.83;;;;;;;16.70;66.58;102145.75;20129246;29;20060;-88
2023/01/03 13:37:05;;;;;;;2.25;1.77;;;;;;;16.69;66.59;102120.69;20136806;29;20226;-87
2023/01/03 13:47:21;;;;;;;1.75;1.65;;;;;;;16.52;66.52;102103.81;20136847;29;20053;-88
2023/01/03 13:57:35;;;;;;;2.20;1.65;;;;;;;16.70;66.65;102124.22;20154283;29;20064;-91
2023/01/03 14:07:39;;;;;;;2.30;1.77;;;;;;;16.70;66.67;102130.50;20142975;29;20052;-91
2023/01/03 14:17:47;;;;;;;2.57;1.90;;;;;;;16.07;66.55;102027.81;20146492;29;20631;-90
2023/01/03 14:27:48;;;;;;;1.83;1.65;;;;;;;16.72;66.63;102130.38;20180174;29;20057;-88
2023/01/03 14:37:50;;;;;;;2.63;1.55;;;;;;;16.72;66.75;102130.38;20133030;29;20144;-92
2023/01/03 14:47:53;;;;;;;2.05;1.50;;;;;;;16.71;66.80;102123.28;20126512;29;20056;-89
2023/01/03 14:57:55;;;;;;;1.88;1.40;;;;;;;16.72;66.70;102125.00;20129193;29;20053;-90
2023/01/03 15:08:18;;;;;;;1.48;1.38;;;;;;;16.71;66.80;102121.47;20122796;29;20053;-90
2023/01/03 15:18:22;;;;;;;1.60;1.45;;;;;;;16.59;66.78;102093.53;20129148;29;20053;-93
2023/01/03 15:28:27;;;;;;;2.08;1.15;;;;;;;16.63;66.86;102088.84;20120432;29;20060;-91
2023/01/03 15:38:35;;;;;;;1.47;1.27;;;;;;;16.71;66.84;102104.44;20119043;29;20045;-90
2023/01/03 15:48:37;;;;;;;1.50;1.20;;;;;;;16.67;65.97;102110.03;20139872;29;20057;-90
2023/01/03 15:58:39;;;;;;;1.83;1.40;;;;;;;16.36;65.94;102055.56;20143924;29;20076;-89
2023/01/03 16:08:41;;;;;;;2.03;1.40;;;;;;;16.47;65.35;102062.06;20170836;29;20109;-88
2023/01/03 16:18:44;;;;;;;1.90;1.20;;;;;;;16.45;66.04;102061.31;20150063;29;20621;-89
2023/01/03 16:28:45;;;;;;;1.60;1.30;;;;;;;16.43;65.62;102063.22;20134936;29;20139;-89
2023/01/03 16:38:47;;;;;;;1.90;1.27;;;;;;;16.48;65.35;102059.25;20131117;29;20060;-90
2023/01/03 16:48:53;;;;;;;1.98;1.52;;;;;;;16.46;65.18;102052.28;20136924;29;20139;-90
2023/01/03 16:58:55;;;;;;;2.45;1.40;;;;;;;16.06;65.03;101994.75;20136426;29;20053;-91
2023/01/03 17:08:58;;;;;;;1.73;1.10;;;;;;;16.43;64.97;102039.03;20133718;29;20061;-89
2023/01/03 17:19:00;;;;;;;1.90;1.15;;;;;;;16.40;64.95;102029.34;20127969;29;20149;-90
2023/01/03 17:29:04;;;;;;;1.90;1.35;;;;;;;16.40;64.77;102017.72;20121458;29;20067;-89
2023/01/03 17:39:08;;;;;;;2.33;1.40;;;;;;;16.38;64.82;102018.69;20123041;29;20072;-89
2023/01/03 17:49:23;;;;;;;1.75;1.10;;;;;;;16.37;64.83;102003.53;20113148;29;20198;-92
2023/01/03 17:59:25;;;;;;;1.40;0.90;;;;;;;16.19;64.81;101967.09;20111058;29;20916;-92
2023/01/03 18:09:27;;;;;;;1.30;1.13;;;;;;;16.35;64.79;101989.34;20114572;29;20410;-91
2023/01/03 18:19:29;;;;;;;2.15;1.10;;;;;;;16.24;64.86;101949.72;20107179;29;20075;-88
2023/01/03 18:29:30;;;;;;;1.33;1.17;;;;;;;16.33;64.62;101956.28;20127509;29;20156;-87
2023/01/03 18:39:32;;;;;;;1.70;0.88;;;;;;;16.32;64.81;101941.13;20133316;29;20197;-89
2023/01/03 18:49:33;;;;;;;1.75;1.10;;;;;;;16.33;65.49;101942.84;20131234;29;20059;-87
2023/01/03 18:59:35;;;;;;;1.17;1.08;;;;;;;16.33;65.23;101913.28;20144252;29;20061;-88
2023/01/03 19:09:37;;;;;;;1.90;0.90;;;;;;;16.25;65.10;101891.44;20146286;29;20059;-87
2023/01/03 19:19:38;;;;;;;1.63;0.85;;;;;;;16.31;64.91;101876.75;20171188;29;20510;-87
2023/01/03 19:29:40;;;;;;;2.10;0.90;;;;;;;16.21;64.65;101863.94;20181357;29;20064;-88
2023/01/03 19:39:42;;;;;;;1.30;1.08;;;;;;;16.29;64.42;101863.41;20109227;29;20057;-87
2023/01/03 19:49:46;;;;;;;1.85;1.00;;;;;;;16.29;64.70;101863.41;20171294;29;20061;-85
2023/01/03 19:59:50;;;;;;;2.00;1.08;;;;;;;16.00;64.55;101796.38;20169565;29;20053;-88
2023/01/03 20:09:52;;;;;;;2.10;1.10;;;;;;;16.27;64.03;101830.41;20165783;29;20135;-88
2023/01/03 20:19:53;;;;;;;1.50;0.90;;;;;;;16.27;64.36;101805.38;20167999;29;20060;-88
2023/01/03 20:29:55;;;;;;;1.00;0.70;;;;;;;16.26;64.20;101791.06;20161202;29;20053;-88
2023/01/03 20:39:56;;;;;;;1.83;0.80;;;;;;;16.24;63.96;101776.88;20163897;29;20061;-87
2023/01/03 20:49:58;;;;;;;1.13;0.65;;;;;;;16.24;64.00;101756.25;20163054;29;20113;-88
2023/01/03 20:59:59;;;;;;;2.20;0.90;;;;;;;16.23;63.94;101733.03;20163679;29;20538;-88
2023/01/03 21:10:01;;;;;;;1.90;0.73;;;;;;;16.19;64.08;101715.41;20162171;29;20057;-88
2023/01/03 21:20:02;;;;;;;2.38;0.98;;;;;;;16.22;63.91;101709.84;20159161;29;20052;-88
2023/01/03 21:30:04;;;;;;;1.20;0.98;;;;;;;16.23;63.92;101679.31;20155303;29;20537;-87
2023/01/03 21:40:17;;;;;;;2.03;0.70;;;;;;;16.16;63.75;101650.28;20166200;29;20045;-88
2023/01/03 21:50:20;;;;;;;1.20;0.80;;;;;;;16.21;63.84;101650.81;20156227;29;20052;-88
2023/01/03 22:00:21;;;;;;;1.52;0.80;;;;;;;15.89;63.66;101586.75;20173114;29;20459;-89
2023/01/03 22:10:23;;;;;;;3.00;1.17;;;;;;;16.04;63.74;101607.19;20156572;29;20153;-89
2023/01/03 22:20:25;;;;;;;2.22;1.00;;;;;;;16.20;63.73;101612.38;20171726;29;20067;-89
2023/01/03 22:30:26;;;;;;;1.85;0.98;;;;;;;16.20;63.62;101600.75;20153046;29;20451;-89
2023/01/03 22:40:28;;;;;;;1.98;0.93;;;;;;;16.20;63.59;101579.25;20153690;29;20064;-88
2023/01/03 22:50:29;;;;;;;2.63;0.80;;;;;;;16.19;63.67;101564.97;20154746;29;20574;-88
2023/01/03 23:00:31;;;;;;;1.73;0.93;;;;;;;16.19;63.63;101550.66;20155044;29;20105;-88
2023/01/03 23:10:32;;;;;;;1.83;1.00;;;;;;;16.18;63.43;101535.53;20153432;29;20049;-88
2023/01/03 23:20:34;;;;;;;2.38;0.90;;;;;;;15.91;63.26;101458.66;20155447;29;20056;-88
2023/01/03 23:30:36;;;;;;;3.33;1.25;;;;;;;16.17;63.31;101489.00;20152346;29;20061;-84
2023/01/03 23:40:41;;;;;;;1.98;1.10;;;;;;;16.17;63.44;101447.84;20130961;29;21272;-88
2023/01/03 23:50:42;;;;;;;2.50;1.00;;;;;;;15.57;63.49;101330.34;20168040;29;20063;-89
